sensor_id;sensor_type;location;lat;lon;timestamp;pressure;altitude;pressure_sealevel;temperature;humidity
72802;BME280;61891;55.818;37.084;2023-09-07T00:01:30;100045.03;;;10.78;55.60
72802;BME280;61891;55.818;37.084;2023-09-07T00:03:57;100046.16;;;10.75;55.65
72802;BME280;61891;55.818;37.084;2023-09-07T00:06:23;100048.06;;;10.65;55.88
72802;BME280;61891;55.818;37.084;2023-09-07T00:08:48;100052.09;;;10.69;56.07
72802;BME280;61891;55.818;37.084;2023-09-07T00:11:14;100058.38;;;10.68;56.41
72802;BME280;61891;55.818;37.084;2023-09-07T00:13:40;100055.34;;;10.63;56.12
72802;BME280;61891;55.818;37.084;2023-09-07T00:16:06;100061.31;;;10.65;56.34
72802;BME280;61891;55.818;37.084;2023-09-07T00:18:33;100058.81;;;10.63;56.24
72802;BME280;61891;55.818;37.084;2023-09-07T00:20:59;100058.28;;;10.60;56.10
72802;BME280;61891;55.818;37.084;2023-09-07T00:23:26;100060.25;;;10.58;56.45
72802;BME280;61891;55.818;37.084;2023-09-07T00:25:52;100066.53;;;10.57;56.96
72802;BME280;61891;55.818;37.084;2023-09-07T00:28:19;100069.50;;;10.54;56.70
72802;BME280;61891;55.818;37.084;2023-09-07T00:30:45;100062.50;;;10.53;56.54
72802;BME280;61891;55.818;37.084;2023-09-07T00:33:11;100066.16;;;10.52;56.95
72802;BME280;61891;55.818;37.084;2023-09-07T00:35:37;100060.59;;;10.45;56.84
72802;BME280;61891;55.818;37.084;2023-09-07T00:38:03;100072.88;;;10.46;57.05
72802;BME280;61891;55.818;37.084;2023-09-07T00:40:29;100074.84;;;10.44;57.16
72802;BME280;61891;55.818;37.084;2023-09-07T00:42:55;100068.84;;;10.42;56.97
72802;BME280;61891;55.818;37.084;2023-09-07T00:45:21;100070.09;;;10.38;57.01
72802;BME280;61891;55.818;37.084;2023-09-07T00:47:47;100055.38;;;10.26;56.99
72802;BME280;61891;55.818;37.084;2023-09-07T00:50:13;100065.44;;;10.22;57.15
72802;BME280;61891;55.818;37.084;2023-09-07T00:52:42;100023.72;;;9.97;56.61
72802;BME280;61891;55.818;37.084;2023-09-07T00:55:09;100082.72;;;10.26;57.07
72802;BME280;61891;55.818;37.084;2023-09-07T00:57:36;100080.22;;;10.25;57.70
72802;BME280;61891;55.818;37.084;2023-09-07T01:00:04;100064.91;;;10.09;57.78
72802;BME280;61891;55.818;37.084;2023-09-07T01:02:32;100084.97;;;10.21;57.74
72802;BME280;61891;55.818;37.084;2023-09-07T01:04:59;100085.97;;;10.20;57.68
72802;BME280;61891;55.818;37.084;2023-09-07T01:07:29;100091.50;;;10.17;57.66
72802;BME280;61891;55.818;37.084;2023-09-07T01:09:58;100092.66;;;10.15;57.52
72802;BME280;61891;55.818;37.084;2023-09-07T01:12:25;100102.69;;;10.11;57.80
72802;BME280;61891;55.818;37.084;2023-09-07T01:14:51;100098.38;;;10.10;57.83
72802;BME280;61891;55.818;37.084;2023-09-07T01:17:18;100094.78;;;10.01;58.25
72802;BME280;61891;55.818;37.084;2023-09-07T01:19:52;100075.31;;;9.93;58.86
72802;BME280;61891;55.818;37.084;2023-09-07T01:22:19;100098.41;;;10.00;58.25
72802;BME280;61891;55.818;37.084;2023-09-07T01:24:50;100092.72;;;9.95;59.09
72802;BME280;61891;55.818;37.084;2023-09-07T01:27:17;100102.03;;;9.99;59.27
72802;BME280;61891;55.818;37.084;2023-09-07T01:29:43;100105.81;;;9.97;58.54
72802;BME280;61891;55.818;37.084;2023-09-07T01:32:09;100090.94;;;9.86;59.24
72802;BME280;61891;55.818;37.084;2023-09-07T01:34:36;100113.06;;;9.95;58.94
72802;BME280;61891;55.818;37.084;2023-09-07T01:37:02;100062.84;;;9.66;59.00
72802;BME280;61891;55.818;37.084;2023-09-07T01:39:27;100116.00;;;9.92;59.45
72802;BME280;61891;55.818;37.084;2023-09-07T01:41:54;100111.44;;;9.84;59.18
72802;BME280;61891;55.818;37.084;2023-09-07T01:44:19;100100.72;;;9.76;59.27
72802;BME280;61891;55.818;37.084;2023-09-07T01:46:45;100104.91;;;9.79;59.76
72802;BME280;61891;55.818;37.084;2023-09-07T01:49:11;100118.41;;;9.85;59.72
72802;BME280;61891;55.818;37.084;2023-09-07T01:51:37;100114.91;;;9.85;59.77
72802;BME280;61891;55.818;37.084;2023-09-07T01:54:03;100102.69;;;9.74;60.04
72802;BME280;61891;55.818;37.084;2023-09-07T01:56:29;100125.78;;;9.82;61.05
72802;BME280;61891;55.818;37.084;2023-09-07T01:58:55;100106.19;;;9.65;60.29
72802;BME280;61891;55.818;37.084;2023-09-07T02:01:26;100135.00;;;9.78;60.29
72802;BME280;61891;55.818;37.084;2023-09-07T02:03:52;100131.38;;;9.79;60.64
72802;BME280;61891;55.818;37.084;2023-09-07T02:06:18;100136.66;;;9.79;61.27
72802;BME280;61891;55.818;37.084;2023-09-07T02:08:44;100132.34;;;9.78;60.76
72802;BME280;61891;55.818;37.084;2023-09-07T02:11:10;100128.03;;;9.77;60.80
72802;BME280;61891;55.818;37.084;2023-09-07T02:13:36;100141.28;;;9.77;61.00
72802;BME280;61891;55.818;37.084;2023-09-07T02:16:04;100127.63;;;9.72;60.44
72802;BME280;61891;55.818;37.084;2023-09-07T02:18:35;100133.75;;;9.82;61.08
72802;BME280;61891;55.818;37.084;2023-09-07T02:21:22;100111.06;;;9.69;60.05
72802;BME280;61891;55.818;37.084;2023-09-07T02:23:47;100107.13;;;9.74;60.78
72802;BME280;61891;55.818;37.084;2023-09-07T02:26:13;100146.09;;;10.00;60.69
72802;BME280;61891;55.818;37.084;2023-09-07T02:28:39;100141.34;;;10.04;60.37
72802;BME280;61891;55.818;37.084;2023-09-07T02:31:06;100156.06;;;10.16;60.38
72802;BME280;61891;55.818;37.084;2023-09-07T02:33:32;100149.25;;;10.23;60.43
72802;BME280;61891;55.818;37.084;2023-09-07T02:35:59;100137.66;;;10.24;60.44
72802;BME280;61891;55.818;37.084;2023-09-07T02:38:25;100128.44;;;10.28;60.03
72802;BME280;61891;55.818;37.084;2023-09-07T02:40:52;100162.00;;;10.47;60.45
72802;BME280;61891;55.818;37.084;2023-09-07T02:43:19;100158.78;;;10.53;59.77
72802;BME280;61891;55.818;37.084;2023-09-07T02:45:44;100144.16;;;10.49;59.35
72802;BME280;61891;55.818;37.084;2023-09-07T02:48:10;100152.19;;;10.57;59.61
72802;BME280;61891;55.818;37.084;2023-09-07T02:50:38;100160.41;;;10.64;59.74
72802;BME280;61891;55.818;37.084;2023-09-07T02:53:03;100169.03;;;10.66;60.20
72802;BME280;61891;55.818;37.084;2023-09-07T02:55:31;100164.72;;;10.65;59.50
72802;BME280;61891;55.818;37.084;2023-09-07T02:57:57;100161.78;;;10.68;60.10
72802;BME280;61891;55.818;37.084;2023-09-07T03:00:23;100176.78;;;10.77;59.97
72802;BME280;61891;55.818;37.084;2023-09-07T03:02:50;100170.91;;;10.83;60.17
72802;BME280;61891;55.818;37.084;2023-09-07T03:05:16;100172.56;;;10.84;60.48
72802;BME280;61891;55.818;37.084;2023-09-07T03:07:45;100131.00;;;10.57;59.83
72802;BME280;61891;55.818;37.084;2023-09-07T03:10:11;100171.50;;;10.77;59.39
72802;BME280;61891;55.818;37.084;2023-09-07T03:12:39;100169.28;;;10.73;59.38
72802;BME280;61891;55.818;37.084;2023-09-07T03:15:06;100161.78;;;10.68;60.12
72802;BME280;61891;55.818;37.084;2023-09-07T03:17:33;100175.03;;;10.68;59.65
72802;BME280;61891;55.818;37.084;2023-09-07T03:20:00;100179.66;;;10.66;60.87
72802;BME280;61891;55.818;37.084;2023-09-07T03:22:26;100190.69;;;10.61;60.19
72802;BME280;61891;55.818;37.084;2023-09-07T03:24:56;100179.84;;;10.55;60.22
72802;BME280;61891;55.818;37.084;2023-09-07T03:27:21;100188.78;;;10.54;59.80
72802;BME280;61891;55.818;37.084;2023-09-07T03:29:49;100186.28;;;10.52;60.07
72802;BME280;61891;55.818;37.084;2023-09-07T03:32:18;100185.56;;;10.50;60.55
72802;BME280;61891;55.818;37.084;2023-09-07T03:34:44;100158.97;;;10.32;60.03
72802;BME280;61891;55.818;37.084;2023-09-07T03:37:10;100172.22;;;10.42;60.73
72802;BME280;61891;55.818;37.084;2023-09-07T03:39:38;100187.28;;;10.42;60.88
72802;BME280;61891;55.818;37.084;2023-09-07T03:42:04;100192.00;;;10.48;59.35
72802;BME280;61891;55.818;37.084;2023-09-07T03:44:30;100201.47;;;10.50;60.04
72802;BME280;61891;55.818;37.084;2023-09-07T03:46:55;100193.00;;;10.47;60.04
72802;BME280;61891;55.818;37.084;2023-09-07T03:49:21;100196.63;;;10.46;60.72
72802;BME280;61891;55.818;37.084;2023-09-07T03:51:47;100205.50;;;10.54;61.11
72802;BME280;61891;55.818;37.084;2023-09-07T03:54:13;100172.78;;;10.36;60.53
72802;BME280;61891;55.818;37.084;2023-09-07T03:56:39;100200.25;;;10.45;60.20
72802;BME280;61891;55.818;37.084;2023-09-07T03:59:07;100214.00;;;10.58;60.43
72802;BME280;61891;55.818;37.084;2023-09-07T04:01:34;100211.66;;;10.55;60.83
72802;BME280;61891;55.818;37.084;2023-09-07T04:04:00;100210.97;;;10.53;60.85
72802;BME280;61891;55.818;37.084;2023-09-07T04:06:26;100215.81;;;10.57;60.02
72802;BME280;61891;55.818;37.084;2023-09-07T04:08:51;100232.66;;;10.66;60.34
72802;BME280;61891;55.818;37.084;2023-09-07T04:11:17;100231.41;;;10.70;60.38
72802;BME280;61891;55.818;37.084;2023-09-07T04:13:43;100234.44;;;10.75;60.33
72802;BME280;61891;55.818;37.084;2023-09-07T04:16:09;100188.09;;;10.52;60.12
72802;BME280;61891;55.818;37.084;2023-09-07T04:18:35;100237.75;;;10.87;60.22
72802;BME280;61891;55.818;37.084;2023-09-07T04:21:07;100237.00;;;10.94;60.57
72802;BME280;61891;55.818;37.084;2023-09-07T04:23:34;100235.72;;;10.98;60.31
72802;BME280;61891;55.818;37.084;2023-09-07T04:26:07;100243.78;;;11.07;61.25
72802;BME280;61891;55.818;37.084;2023-09-07T04:28:34;100240.00;;;11.09;60.61
72802;BME280;61891;55.818;37.084;2023-09-07T04:31:00;100244.41;;;11.18;60.73
72802;BME280;61891;55.818;37.084;2023-09-07T04:33:30;100187.06;;;10.90;60.34
72802;BME280;61891;55.818;37.084;2023-09-07T04:35:56;100246.41;;;11.34;60.32
72802;BME280;61891;55.818;37.084;2023-09-07T04:38:22;100245.94;;;11.39;60.05
72802;BME280;61891;55.818;37.084;2023-09-07T04:40:48;100250.88;;;11.51;59.73
72802;BME280;61891;55.818;37.084;2023-09-07T04:43:14;100251.56;;;11.53;59.09
72802;BME280;61891;55.818;37.084;2023-09-07T04:45:46;100256.19;;;11.51;59.77
72802;BME280;61891;55.818;37.084;2023-09-07T04:48:13;100267.06;;;11.58;59.09
72802;BME280;61891;55.818;37.084;2023-09-07T04:50:38;100242.69;;;11.45;59.32
72802;BME280;61891;55.818;37.084;2023-09-07T04:53:04;100238.91;;;11.47;58.76
72802;BME280;61891;55.818;37.084;2023-09-07T04:55:30;100258.56;;;11.54;59.28
72802;BME280;61891;55.818;37.084;2023-09-07T04:57:56;100240.28;;;11.51;59.34
72802;BME280;61891;55.818;37.084;2023-09-07T05:00:22;100243.69;;;11.61;58.88
72802;BME280;61891;55.818;37.084;2023-09-07T05:02:48;100263.81;;;11.82;59.18
72802;BME280;61891;55.818;37.084;2023-09-07T05:05:14;100259.41;;;11.90;58.87
72802;BME280;61891;55.818;37.084;2023-09-07T05:07:41;100216.06;;;11.72;58.74
72802;BME280;61891;55.818;37.084;2023-09-07T05:10:08;100266.53;;;12.08;58.44
72802;BME280;61891;55.818;37.084;2023-09-07T05:12:38;100268.78;;;12.20;58.61
72802;BME280;61891;55.818;37.084;2023-09-07T05:15:05;100253.81;;;12.19;58.11
72802;BME280;61891;55.818;37.084;2023-09-07T05:17:32;100240.38;;;12.21;58.59
72802;BME280;61891;55.818;37.084;2023-09-07T05:19:58;100259.81;;;12.47;58.03
72802;BME280;61891;55.818;37.084;2023-09-07T05:22:24;100253.72;;;12.55;57.88
72802;BME280;61891;55.818;37.084;2023-09-07T05:24:51;100274.78;;;12.74;57.69
72802;BME280;61891;55.818;37.084;2023-09-07T05:27:17;100271.75;;;12.69;57.50
72802;BME280;61891;55.818;37.084;2023-09-07T05:29:44;100270.84;;;12.86;57.17
72802;BME280;61891;55.818;37.084;2023-09-07T05:32:09;100279.06;;;13.01;57.03
72802;BME280;61891;55.818;37.084;2023-09-07T05:34:35;100274.06;;;12.98;57.14
72802;BME280;61891;55.818;37.084;2023-09-07T05:37:01;100291.88;;;13.06;56.56
72802;BME280;61891;55.818;37.084;2023-09-07T05:39:27;100284.25;;;13.11;56.90
72802;BME280;61891;55.818;37.084;2023-09-07T05:41:53;100282.00;;;13.24;56.46
72802;BME280;61891;55.818;37.084;2023-09-07T05:44:19;100287.72;;;13.45;56.43
72802;BME280;61891;55.818;37.084;2023-09-07T05:46:45;100288.56;;;13.54;55.80
72802;BME280;61891;55.818;37.084;2023-09-07T05:49:10;100272.25;;;13.49;56.10
72802;BME280;61891;55.818;37.084;2023-09-07T05:51:36;100293.91;;;13.62;55.72
72802;BME280;61891;55.818;37.084;2023-09-07T05:54:02;100294.91;;;13.61;55.75
72802;BME280;61891;55.818;37.084;2023-09-07T05:56:29;100293.25;;;13.60;55.48
72802;BME280;61891;55.818;37.084;2023-09-07T05:58:56;100289.78;;;13.76;55.33
72802;BME280;61891;55.818;37.084;2023-09-07T06:01:22;100297.63;;;13.85;55.36
72802;BME280;61891;55.818;37.084;2023-09-07T06:03:48;100270.97;;;13.85;55.14
72802;BME280;61891;55.818;37.084;2023-09-07T06:06:13;100289.47;;;13.95;55.11
72802;BME280;61891;55.818;37.084;2023-09-07T06:08:39;100297.63;;;13.94;55.05
72802;BME280;61891;55.818;37.084;2023-09-07T06:11:05;100283.78;;;13.82;54.79
72802;BME280;61891;55.818;37.084;2023-09-07T06:13:32;100302.78;;;14.03;55.01
72802;BME280;61891;55.818;37.084;2023-09-07T06:15:58;100302.13;;;14.09;54.79
72802;BME280;61891;55.818;37.084;2023-09-07T06:18:26;100302.13;;;14.09;54.64
72802;BME280;61891;55.818;37.084;2023-09-07T06:20:52;100304.31;;;14.14;54.66
72802;BME280;61891;55.818;37.084;2023-09-07T06:23:18;100295.63;;;14.20;54.51
72802;BME280;61891;55.818;37.084;2023-09-07T06:25:44;100297.78;;;14.33;54.16
72802;BME280;61891;55.818;37.084;2023-09-07T06:28:09;100307.31;;;14.43;54.21
72802;BME280;61891;55.818;37.084;2023-09-07T06:30:35;100280.97;;;14.32;53.75
72802;BME280;61891;55.818;37.084;2023-09-07T06:33:01;100282.28;;;14.36;53.67
72802;BME280;61891;55.818;37.084;2023-09-07T06:35:27;100310.13;;;14.50;53.99
72802;BME280;61891;55.818;37.084;2023-09-07T06:37:53;100299.13;;;14.37;53.59
72802;BME280;61891;55.818;37.084;2023-09-07T06:40:22;100302.13;;;14.50;53.53
72802;BME280;61891;55.818;37.084;2023-09-07T06:42:52;100298.97;;;14.55;53.34
72802;BME280;61891;55.818;37.084;2023-09-07T06:45:20;100310.13;;;14.66;52.99
72802;BME280;61891;55.818;37.084;2023-09-07T06:47:51;100281.09;;;14.63;53.18
72802;BME280;61891;55.818;37.084;2023-09-07T06:50:20;100292.06;;;14.84;52.62
72802;BME280;61891;55.818;37.084;2023-09-07T06:52:47;100310.00;;;15.07;52.53
72802;BME280;61891;55.818;37.084;2023-09-07T06:55:14;100314.63;;;15.21;52.44
72802;BME280;61891;55.818;37.084;2023-09-07T06:57:39;100315.25;;;15.31;51.98
72802;BME280;61891;55.818;37.084;2023-09-07T07:00:06;100319.53;;;15.40;51.74
72802;BME280;61891;55.818;37.084;2023-09-07T07:02:39;100310.34;;;15.43;51.64
72802;BME280;61891;55.818;37.084;2023-09-07T07:05:07;100307.44;;;15.53;51.42
72802;BME280;61891;55.818;37.084;2023-09-07T07:07:34;100322.13;;;15.65;51.35
72802;BME280;61891;55.818;37.084;2023-09-07T07:10:00;100322.28;;;15.71;51.19
72802;BME280;61891;55.818;37.084;2023-09-07T07:12:26;100317.69;;;15.80;51.07
72802;BME280;61891;55.818;37.084;2023-09-07T07:14:52;100328.09;;;15.98;50.94
72802;BME280;61891;55.818;37.084;2023-09-07T07:17:18;100314.09;;;15.96;50.16
72802;BME280;61891;55.818;37.084;2023-09-07T07:19:44;100326.69;;;16.10;50.29
72802;BME280;61891;55.818;37.084;2023-09-07T07:22:10;100293.34;;;15.98;49.92
72802;BME280;61891;55.818;37.084;2023-09-07T07:24:35;100326.44;;;16.20;49.96
72802;BME280;61891;55.818;37.084;2023-09-07T07:27:01;100327.75;;;16.24;49.57
72802;BME280;61891;55.818;37.084;2023-09-07T07:29:31;100331.00;;;16.34;49.55
72802;BME280;61891;55.818;37.084;2023-09-07T07:31:57;100335.91;;;16.45;49.35
72802;BME280;61891;55.818;37.084;2023-09-07T07:34:23;100328.47;;;16.55;48.51
72802;BME280;61891;55.818;37.084;2023-09-07T07:36:49;100328.75;;;16.60;48.41
72802;BME280;61891;55.818;37.084;2023-09-07T07:39:14;100327.88;;;16.68;47.95
72802;BME280;61891;55.818;37.084;2023-09-07T07:41:41;100334.44;;;16.80;48.15
72802;BME280;61891;55.818;37.084;2023-09-07T07:44:07;100322.53;;;16.83;47.64
72802;BME280;61891;55.818;37.084;2023-09-07T07:46:34;100316.72;;;16.94;47.62
72802;BME280;61891;55.818;37.084;2023-09-07T07:49:00;100294.84;;;16.90;47.55
72802;BME280;61891;55.818;37.084;2023-09-07T07:51:26;100312.28;;;17.16;47.23
72802;BME280;61891;55.818;37.084;2023-09-07T07:53:54;100314.09;;;17.30;46.74
72802;BME280;61891;55.818;37.084;2023-09-07T07:56:20;100315.25;;;17.57;46.79
72802;BME280;61891;55.818;37.084;2023-09-07T07:58:50;100310.78;;;17.79;46.95
72802;BME280;61891;55.818;37.084;2023-09-07T08:01:18;100305.69;;;17.84;46.18
72802;BME280;61891;55.818;37.084;2023-09-07T08:03:45;100307.97;;;17.87;45.74
72802;BME280;61891;55.818;37.084;2023-09-07T08:06:11;100313.41;;;17.93;45.46
72802;BME280;61891;55.818;37.084;2023-09-07T08:08:38;100315.25;;;18.14;45.59
72802;BME280;61891;55.818;37.084;2023-09-07T08:11:04;100309.81;;;18.29;44.87
72802;BME280;61891;55.818;37.084;2023-09-07T08:13:33;100302.34;;;18.24;44.58
72802;BME280;61891;55.818;37.084;2023-09-07T08:16:02;100316.19;;;18.49;44.11
72802;BME280;61891;55.818;37.084;2023-09-07T08:18:28;100313.47;;;18.71;43.71
72802;BME280;61891;55.818;37.084;2023-09-07T08:20:55;100311.91;;;18.83;43.36
72802;BME280;61891;55.818;37.084;2023-09-07T08:23:21;100317.81;;;19.06;43.58
72802;BME280;61891;55.818;37.084;2023-09-07T08:25:50;100311.25;;;19.15;42.76
72802;BME280;61891;55.818;37.084;2023-09-07T08:28:16;100305.47;;;19.18;42.18
72802;BME280;61891;55.818;37.084;2023-09-07T08:30:44;100315.44;;;19.24;42.39
72802;BME280;61891;55.818;37.084;2023-09-07T08:33:10;100317.22;;;19.11;42.28
72802;BME280;61891;55.818;37.084;2023-09-07T08:35:36;100308.78;;;18.79;42.23
72802;BME280;61891;55.818;37.084;2023-09-07T08:38:13;100314.03;;;18.94;42.33
72802;BME280;61891;55.818;37.084;2023-09-07T08:41:05;100312.31;;;19.21;42.08
72802;BME280;61891;55.818;37.084;2023-09-07T08:43:33;100307.72;;;19.08;41.96
72802;BME280;61891;55.818;37.084;2023-09-07T08:46:14;100306.69;;;19.09;41.58
72802;BME280;61891;55.818;37.084;2023-09-07T08:48:42;100267.44;;;19.15;41.59
72802;BME280;61891;55.818;37.084;2023-09-07T08:51:09;100303.72;;;19.45;41.16
72802;BME280;61891;55.818;37.084;2023-09-07T08:53:37;100306.72;;;19.63;40.49
72802;BME280;61891;55.818;37.084;2023-09-07T08:56:03;100298.69;;;19.77;39.91
72802;BME280;61891;55.818;37.084;2023-09-07T08:58:29;100304.28;;;19.88;38.96
72802;BME280;61891;55.818;37.084;2023-09-07T09:00:55;100300.81;;;20.21;39.38
72802;BME280;61891;55.818;37.084;2023-09-07T09:03:23;100303.72;;;20.66;38.61
72802;BME280;61891;55.818;37.084;2023-09-07T09:05:50;100309.19;;;21.37;38.28
72802;BME280;61891;55.818;37.084;2023-09-07T09:08:16;100283.91;;;22.32;37.16
72802;BME280;61891;55.818;37.084;2023-09-07T09:10:45;100296.06;;;22.66;36.37
72802;BME280;61891;55.818;37.084;2023-09-07T09:13:11;100299.72;;;22.29;35.67
72802;BME280;61891;55.818;37.084;2023-09-07T09:15:37;100281.19;;;22.57;35.30
72802;BME280;61891;55.818;37.084;2023-09-07T09:18:12;100303.53;;;22.21;34.49
72802;BME280;61891;55.818;37.084;2023-09-07T09:20:39;100281.91;;;22.21;35.10
72802;BME280;61891;55.818;37.084;2023-09-07T09:23:05;100293.28;;;22.73;34.99
72802;BME280;61891;55.818;37.084;2023-09-07T09:25:32;100279.59;;;22.49;34.79
72802;BME280;61891;55.818;37.084;2023-09-07T09:27:58;100294.78;;;22.69;33.04
72802;BME280;61891;55.818;37.084;2023-09-07T09:30:25;100308.19;;;22.07;34.08
72802;BME280;61891;55.818;37.084;2023-09-07T09:32:50;100323.03;;;21.53;34.14
72802;BME280;61891;55.818;37.084;2023-09-07T09:35:17;100314.28;;;21.58;33.21
72802;BME280;61891;55.818;37.084;2023-09-07T09:37:44;100300.59;;;22.47;34.40
72802;BME280;61891;55.818;37.084;2023-09-07T09:40:13;100262.72;;;23.75;33.62
72802;BME280;61891;55.818;37.084;2023-09-07T09:42:41;100292.69;;;24.57;32.21
72802;BME280;61891;55.818;37.084;2023-09-07T09:45:09;100297.66;;;24.07;32.48
72802;BME280;61891;55.818;37.084;2023-09-07T09:47:38;100265.00;;;23.12;32.41
72802;BME280;61891;55.818;37.084;2023-09-07T09:50:07;100294.38;;;22.47;33.18
72802;BME280;61891;55.818;37.084;2023-09-07T09:52:34;100297.75;;;22.86;32.80
72802;BME280;61891;55.818;37.084;2023-09-07T09:55:03;100289.91;;;23.69;31.90
72802;BME280;61891;55.818;37.084;2023-09-07T09:57:32;100291.72;;;25.10;31.07
72802;BME280;61891;55.818;37.084;2023-09-07T09:59:59;100284.78;;;25.99;30.21
72802;BME280;61891;55.818;37.084;2023-09-07T10:02:25;100297.78;;;25.41;30.11
72802;BME280;61891;55.818;37.084;2023-09-07T10:04:52;100272.47;;;24.18;29.77
72802;BME280;61891;55.818;37.084;2023-09-07T10:07:19;100294.00;;;23.23;30.85
72802;BME280;61891;55.818;37.084;2023-09-07T10:09:45;100301.22;;;22.49;31.79
72802;BME280;61891;55.818;37.084;2023-09-07T10:12:13;100298.72;;;21.92;31.80
72802;BME280;61891;55.818;37.084;2023-09-07T10:14:42;100314.63;;;21.68;32.24
72802;BME280;61891;55.818;37.084;2023-09-07T10:17:21;100262.81;;;22.66;32.05
72802;BME280;61891;55.818;37.084;2023-09-07T10:19:47;100293.16;;;24.42;31.65
72802;BME280;61891;55.818;37.084;2023-09-07T10:22:23;100290.91;;;24.28;31.01
72802;BME280;61891;55.818;37.084;2023-09-07T10:24:57;100290.09;;;23.56;31.17
72802;BME280;61891;55.818;37.084;2023-09-07T10:27:23;100295.97;;;22.79;30.76
72802;BME280;61891;55.818;37.084;2023-09-07T10:29:51;100299.44;;;22.12;31.17
72802;BME280;61891;55.818;37.084;2023-09-07T10:32:20;100286.38;;;22.77;31.61
72802;BME280;61891;55.818;37.084;2023-09-07T10:34:46;100293.16;;;24.54;30.29
72802;BME280;61891;55.818;37.084;2023-09-07T10:37:13;100294.28;;;26.30;29.41
72802;BME280;61891;55.818;37.084;2023-09-07T10:39:41;100288.66;;;26.32;29.20
72802;BME280;61891;55.818;37.084;2023-09-07T10:42:25;100273.78;;;25.49;28.10
72802;BME280;61891;55.818;37.084;2023-09-07T10:44:52;100277.78;;;25.18;28.71
72802;BME280;61891;55.818;37.084;2023-09-07T10:47:18;100284.81;;;25.31;29.06
72802;BME280;61891;55.818;37.084;2023-09-07T10:49:44;100279.06;;;26.63;28.67
72802;BME280;61891;55.818;37.084;2023-09-07T10:52:10;100291.81;;;27.88;27.50
72802;BME280;61891;55.818;37.084;2023-09-07T10:54:35;100291.50;;;28.86;26.73
72802;BME280;61891;55.818;37.084;2023-09-07T10:57:09;100280.66;;;29.84;24.39
72802;BME280;61891;55.818;37.084;2023-09-07T10:59:35;100285.88;;;30.67;25.28
72802;BME280;61891;55.818;37.084;2023-09-07T11:02:04;100278.47;;;30.77;24.27
72802;BME280;61891;55.818;37.084;2023-09-07T11:04:30;100271.56;;;31.00;24.43
72802;BME280;61891;55.818;37.084;2023-09-07T11:06:56;100278.69;;;29.49;24.36
72802;BME280;61891;55.818;37.084;2023-09-07T11:09:26;100266.50;;;27.66;25.00
72802;BME280;61891;55.818;37.084;2023-09-07T11:11:52;100288.09;;;26.85;25.70
72802;BME280;61891;55.818;37.084;2023-09-07T11:14:21;100281.69;;;26.58;25.62
72802;BME280;61891;55.818;37.084;2023-09-07T11:16:55;100269.97;;;27.13;25.17
72802;BME280;61891;55.818;37.084;2023-09-07T11:19:21;100282.31;;;29.07;25.22
72802;BME280;61891;55.818;37.084;2023-09-07T11:21:48;100273.28;;;29.90;24.83
72802;BME280;61891;55.818;37.084;2023-09-07T11:24:13;100289.66;;;28.97;24.16
72802;BME280;61891;55.818;37.084;2023-09-07T11:26:47;100286.66;;;27.43;24.55
72802;BME280;61891;55.818;37.084;2023-09-07T11:29:14;100292.25;;;26.21;25.96
72802;BME280;61891;55.818;37.084;2023-09-07T11:31:41;100287.34;;;25.21;26.88
72802;BME280;61891;55.818;37.084;2023-09-07T11:34:14;100286.31;;;24.40;26.94
72802;BME280;61891;55.818;37.084;2023-09-07T11:36:40;100285.03;;;24.66;27.52
72802;BME280;61891;55.818;37.084;2023-09-07T11:39:07;100286.56;;;26.94;25.99
72802;BME280;61891;55.818;37.084;2023-09-07T11:41:42;100279.19;;;28.09;24.70
72802;BME280;61891;55.818;37.084;2023-09-07T11:44:08;100278.03;;;27.73;25.53
72802;BME280;61891;55.818;37.084;2023-09-07T11:46:35;100271.66;;;27.19;25.56
72802;BME280;61891;55.818;37.084;2023-09-07T11:49:01;100278.31;;;29.30;25.09
72802;BME280;61891;55.818;37.084;2023-09-07T11:51:27;100276.16;;;31.25;23.75
72802;BME280;61891;55.818;37.084;2023-09-07T11:53:52;100265.44;;;32.17;22.32
72802;BME280;61891;55.818;37.084;2023-09-07T11:56:18;100276.63;;;33.08;21.44
72802;BME280;61891;55.818;37.084;2023-09-07T11:58:44;100277.44;;;33.70;20.90
72802;BME280;61891;55.818;37.084;2023-09-07T12:01:10;100272.28;;;34.52;20.92
72802;BME280;61891;55.818;37.084;2023-09-07T12:03:36;100259.97;;;35.32;20.14
72802;BME280;61891;55.818;37.084;2023-09-07T12:06:02;100262.28;;;35.74;19.70
72802;BME280;61891;55.818;37.084;2023-09-07T12:08:28;100256.03;;;36.27;19.65
72802;BME280;61891;55.818;37.084;2023-09-07T12:10:54;100259.03;;;36.39;18.68
72802;BME280;61891;55.818;37.084;2023-09-07T12:13:20;100248.94;;;36.35;17.86
72802;BME280;61891;55.818;37.084;2023-09-07T12:15:46;100260.00;;;36.12;17.84
72802;BME280;61891;55.818;37.084;2023-09-07T12:18:12;100262.41;;;36.28;17.98
72802;BME280;61891;55.818;37.084;2023-09-07T12:20:37;100266.06;;;36.23;17.55
72802;BME280;61891;55.818;37.084;2023-09-07T12:23:03;100271.66;;;36.54;17.31
72802;BME280;61891;55.818;37.084;2023-09-07T12:25:30;100272.28;;;36.82;17.62
72802;BME280;61891;55.818;37.084;2023-09-07T12:27:55;100271.56;;;37.07;17.54
72802;BME280;61891;55.818;37.084;2023-09-07T12:30:22;100266.13;;;36.54;17.66
72802;BME280;61891;55.818;37.084;2023-09-07T12:32:50;100258.91;;;35.77;17.39
72802;BME280;61891;55.818;37.084;2023-09-07T12:35:17;100258.38;;;36.11;17.28
72802;BME280;61891;55.818;37.084;2023-09-07T12:37:43;100245.75;;;36.41;16.74
72802;BME280;61891;55.818;37.084;2023-09-07T12:40:09;100248.91;;;36.88;16.83